Weerstation
Sluispark-LeuvenLeuven-Sluispark

Weerstation
Wilsele-PutkapelWilsele-Putkapel



Nabijgelegen vliegvelden - METAR rapporten

   
EBBE - Wilsele bij Leuven
Gewijzigd: 27-03-2023 14:25
Gedeeltelijk bewolkt    Wind: NW 22.2 km/h
Gedeeltelijk bewolkt
Wind: Wind: NW 22.2 km/h
Temperatuur: 6°C
Voelt als: 2°C
Dauwpunt: -1°C
Vochtigheid: 61%
Barometer: 1023 hPa
Bewolking: Gedeeltelijk bewolkt
Zicht: meer dan 10 km
Bewolking: Licht bewolkt 914.4 m,
Gedeeltelijk bewolkt 1524 m
EBBE 271225Z 31012KT 9999 FEW030 SCT050 06/M01 Q1023 BLU BLU TEMPO WHT
EBAW - Antwerp
Gewijzigd: 27-03-2023 14:20
Buien dichtbij, Licht bewolkt    Wind: NW 22.2 km/h
Buien dichtbij, Licht bewolkt
Wind: Wind: NW 22.2 km/h
Temperatuur: 7°C
Voelt als: 3°C
Dauwpunt: -1°C
Vochtigheid: 57%
Barometer: 1024 hPa
Bewolking: Licht bewolkt
Zicht: meer dan 10 km
Bewolking: Licht bewolkt 1127.8 m
EBAW 271220Z 32012KT 9999 VCSH FEW037TCU 07/M01 Q1024 NOSIG
EBLG - Li├Ęge
Gewijzigd: 27-03-2023 14:20
Grotendeels bewolkt    Wind: NNW 9.3 km/h
Grotendeels bewolkt
Wind: Wind: NNW 9.3 km/h
Temperatuur: 4°C
Voelt als: 2°C
Dauwpunt: 1°C
Vochtigheid: 81%
Barometer: 1023 hPa
Bewolking: Grotendeels bewolkt
Zicht: meer dan 10 km
Bewolking: Licht bewolkt 274.3 m,
Grotendeels bewolkt 731.5 m
EBLG 271220Z 34005KT 280V040 9999 FEW009 BKN024TCU 04/01 Q1023 TEMPO 3000 SHRAGS
EBCV - Mons/Bergen
Gewijzigd: 27-03-2023 14:25
   Wind: Noorden 16.7 km/h
Wind: Wind: Noorden 16.7 km/h
Temperatuur: 7°C
Voelt als: 4°C
Dauwpunt: -1°C
Vochtigheid: 57%
Barometer: 1025 hPa
Zicht: 8 km
EBCV 271225Z AUTO 35009KT 8000 /// 07/M01 Q1025 BLU
EHBK - Maastricht
Gewijzigd: 27-03-2023 14:25
Grotendeels bewolkt    Wind: WNW 14.8 km/h
Grotendeels bewolkt
Wind: Wind: WNW 14.8 km/h
Temperatuur: 6°C
Voelt als: 3°C
Dauwpunt: 0°C
Vochtigheid: 66%
Barometer: 1022 hPa
Bewolking: Grotendeels bewolkt
Zicht: meer dan 10 km
Bewolking: Grotendeels bewolkt 823 m,
Grotendeels bewolkt 944.9 m,
Grotendeels bewolkt 1066.8 m
EHBK 271225Z AUTO 29008KT 230V350 9999 BKN027 BKN031 BKN035 06/00 Q1022 TEMPO 6000 SHRASNGS FEW025CB
ELLX - Luxemburg
Gewijzigd: 27-03-2023 14:20
Buien dichtbij, Gedeeltelijk bewolkt    Wind: NNW 20.4 km/h
Buien dichtbij, Gedeeltelijk bewolkt
Wind: Wind: NNW 20.4 km/h
Temperatuur: 6°C
Voelt als: 2°C
Dauwpunt: 0°C
Vochtigheid: 66%
Barometer: 1021 hPa
Bewolking: Gedeeltelijk bewolkt
Zicht: meer dan 10 km
Bewolking: Licht bewolkt 548.6 m,
Licht bewolkt 823 m,
Gedeeltelijk bewolkt 823 m
ELLX 271220Z 33011KT 280V010 9999 VCSH FEW018 FEW027CB SCT027 06/M00 Q1021 NOSIG
EBOS - Oostende
Gewijzigd: 27-03-2023 14:20
Licht bewolkt    Wind: Noorden 22.2 km/h
Licht bewolkt
Wind: Wind: Noorden 22.2 km/h
Temperatuur: 5°C
Voelt als: 1°C
Dauwpunt: 1°C
Vochtigheid: 76%
Barometer: 1026 hPa
Bewolking: Licht bewolkt
Zicht: meer dan 10 km
Bewolking: Licht bewolkt 609.6 m
EBOS 271220Z 36012KT 9999 FEW020TCU 05/01 Q1026 TEMPO 01016G26KT
  

Script ontwikkeld door  Saratoga-weather.org Aangepast voor de template door  Weerstation Leuven

U vindt ons ook hier:

UK Metoffice

WeatherCloud

European Weather Network

Weather Underground

Benelux Weather Network

AWEKAS

WeatherlinkIP

HAMweather, WeatherForYou, PWS Weather

Het Weer Aktueel

Apparatuur in gebruik:

Weer-station
Davis VP2 weatherstation

Weer-programma
Meteobridge

Weer-computer
D-Link DIR-505

Davis VP2 weatherstation

Meteobridge

D-Link DIR-505